createdAt,value
2024-03-27T00:00:29.719Z,6.00
2024-03-27T00:03:17.707Z,8.00
2024-03-27T00:05:45.903Z,8.33
2024-03-27T00:08:13.849Z,8.33
2024-03-27T00:10:41.888Z,7.33
2024-03-27T00:13:09.850Z,6.00
2024-03-27T00:15:37.737Z,8.33
2024-03-27T00:18:05.713Z,6.67
2024-03-27T00:20:33.668Z,8.33
2024-03-27T00:23:01.641Z,7.00
2024-03-27T00:25:29.516Z,7.00
2024-03-27T00:27:57.708Z,7.00
2024-03-27T00:30:25.786Z,7.00
2024-03-27T00:32:56.143Z,6.67
2024-03-27T00:35:24.060Z,7.00
2024-03-27T00:37:53.649Z,7.00
2024-03-27T00:40:21.625Z,6.33
2024-03-27T00:42:50.895Z,7.00
2024-03-27T00:45:19.012Z,6.00
2024-03-27T00:47:47.022Z,7.00
2024-03-27T00:50:15.000Z,7.00
2024-03-27T00:52:43.327Z,8.00
2024-03-27T00:55:11.259Z,8.33
2024-03-27T00:57:39.170Z,8.00
2024-03-27T01:00:07.888Z,7.00
2024-03-27T01:02:35.769Z,7.33
2024-03-27T01:05:03.916Z,6.50
2024-03-27T01:07:32.012Z,6.50
2024-03-27T01:10:00.039Z,7.00
2024-03-27T01:12:28.321Z,8.33
2024-03-27T01:14:56.296Z,7.00
2024-03-27T01:17:24.247Z,6.33
2024-03-27T01:19:52.247Z,8.50
2024-03-27T01:22:20.287Z,7.75
2024-03-27T01:24:48.186Z,6.67
2024-03-27T01:27:16.066Z,7.00
2024-03-27T01:29:44.030Z,6.00
2024-03-27T01:32:12.441Z,7.00
2024-03-27T01:34:40.442Z,7.00
2024-03-27T01:37:08.487Z,6.00
2024-03-27T01:39:36.489Z,6.33
2024-03-27T01:42:04.526Z,7.00
2024-03-27T01:44:32.666Z,6.00
2024-03-27T01:47:00.648Z,6.33
2024-03-27T01:49:28.614Z,7.00
2024-03-27T01:51:56.553Z,6.00
2024-03-27T01:54:24.448Z,6.67
2024-03-27T01:56:52.476Z,7.00
2024-03-27T01:59:21.180Z,6.00
2024-03-27T02:01:49.491Z,7.00
2024-03-27T02:04:17.424Z,5.00
2024-03-27T02:06:45.366Z,7.00
2024-03-27T02:09:14.264Z,7.67
2024-03-27T02:11:42.128Z,6.00
2024-03-27T02:14:10.136Z,6.00
2024-03-27T02:16:38.160Z,7.00
2024-03-27T02:19:06.005Z,7.00
2024-03-27T02:21:34.234Z,8.33
2024-03-27T02:24:17.365Z,6.00
2024-03-27T02:26:45.214Z,6.00
2024-03-27T02:29:13.239Z,5.00
2024-03-27T02:31:41.237Z,7.00
2024-03-27T02:34:09.298Z,6.50
2024-03-27T02:36:37.136Z,6.00
2024-03-27T02:39:08.550Z,7.00
2024-03-27T02:41:36.665Z,6.00
2024-03-27T02:44:04.681Z,6.00
2024-03-27T02:46:32.677Z,6.00
2024-03-27T02:49:00.576Z,7.00
2024-03-27T02:51:28.582Z,6.00
2024-03-27T02:53:56.477Z,5.00
2024-03-27T02:56:24.399Z,6.33
2024-03-27T02:58:52.409Z,4.00
2024-03-27T03:01:20.518Z,5.00
2024-03-27T03:03:48.473Z,5.67
2024-03-27T03:06:16.802Z,6.00
2024-03-27T03:08:44.850Z,6.00
2024-03-27T03:11:12.790Z,6.00
2024-03-27T03:13:40.872Z,5.00
2024-03-27T03:16:08.930Z,5.67
2024-03-27T03:18:37.169Z,6.67
2024-03-27T03:21:05.486Z,6.33
2024-03-27T03:23:34.662Z,6.00
2024-03-27T03:26:02.608Z,6.00
2024-03-27T03:28:30.754Z,6.00
2024-03-27T03:31:05.632Z,6.00
2024-03-27T03:33:33.541Z,5.00
2024-03-27T03:36:01.695Z,6.00
2024-03-27T03:38:29.698Z,6.00
2024-03-27T03:41:01.654Z,6.00
2024-03-27T03:43:29.796Z,6.00
2024-03-27T03:45:57.760Z,6.00
2024-03-27T03:48:25.793Z,6.00
2024-03-27T03:50:53.805Z,6.00
2024-03-27T03:53:21.674Z,6.00
2024-03-27T03:55:49.648Z,5.00
2024-03-27T03:58:17.646Z,5.00
2024-03-27T04:00:54.416Z,6.00
2024-03-27T04:03:22.456Z,6.00
2024-03-27T04:05:50.422Z,4.00
2024-03-27T04:08:18.447Z,6.00
2024-03-27T04:10:46.376Z,5.00
2024-03-27T04:13:14.298Z,7.00
2024-03-27T04:15:43.067Z,5.67
2024-03-27T04:18:10.971Z,5.00
2024-03-27T04:20:42.178Z,6.00
2024-03-27T04:23:11.095Z,6.00
2024-03-27T04:25:54.005Z,5.00
2024-03-27T04:28:27.071Z,5.00
2024-03-27T04:30:55.080Z,5.00
2024-03-27T04:33:23.052Z,5.00
2024-03-27T04:35:51.094Z,5.00
2024-03-27T04:38:19.114Z,5.00
2024-03-27T04:40:46.977Z,5.00
2024-03-27T04:43:14.895Z,4.00
2024-03-27T04:45:42.931Z,4.00
2024-03-27T04:48:10.893Z,6.00
2024-03-27T04:50:39.042Z,5.33
2024-03-27T04:53:07.073Z,5.00
2024-03-27T04:55:35.022Z,5.00
2024-03-27T04:58:03.046Z,4.67
2024-03-27T05:00:31.234Z,5.00
2024-03-27T05:02:59.285Z,6.00
2024-03-27T05:05:27.329Z,5.50
2024-03-27T05:07:55.337Z,4.67
2024-03-27T05:10:23.402Z,5.00
2024-03-27T05:12:51.406Z,5.00
2024-03-27T05:15:19.393Z,4.00
2024-03-27T05:17:48.053Z,4.67
2024-03-27T05:20:18.806Z,5.00
2024-03-27T05:22:46.835Z,4.00
2024-03-27T05:25:14.863Z,4.00
2024-03-27T05:27:42.736Z,4.00
2024-03-27T05:30:11.354Z,4.00
2024-03-27T05:32:39.386Z,4.67
2024-03-27T05:35:07.849Z,4.00
2024-03-27T05:37:35.932Z,3.33
2024-03-27T05:40:04.552Z,4.33
2024-03-27T05:42:32.561Z,4.00
2024-03-27T05:45:00.703Z,4.00
2024-03-27T05:47:28.752Z,4.00
2024-03-27T05:49:56.739Z,4.00
2024-03-27T05:52:24.601Z,3.00
2024-03-27T05:54:53.525Z,4.33
2024-03-27T05:57:21.451Z,4.00
2024-03-27T05:59:49.649Z,3.00
2024-03-27T06:02:17.639Z,4.00
2024-03-27T06:04:46.159Z,4.00
2024-03-27T06:07:14.436Z,3.00
2024-03-27T06:09:42.368Z,3.00
2024-03-27T06:12:10.270Z,3.00
2024-03-27T06:14:38.145Z,3.67
2024-03-27T06:17:06.256Z,4.00
2024-03-27T06:19:34.377Z,4.00
2024-03-27T06:22:02.386Z,3.25
2024-03-27T06:24:30.379Z,3.00
2024-03-27T06:26:58.391Z,3.67
2024-03-27T06:29:26.322Z,4.00
2024-03-27T06:31:54.341Z,3.75
2024-03-27T06:34:22.390Z,3.00
2024-03-27T06:36:50.452Z,3.00
2024-03-27T06:39:18.318Z,3.00
2024-03-27T06:41:46.274Z,4.00
2024-03-27T06:44:16.146Z,4.00
2024-03-27T06:46:44.041Z,4.00
2024-03-27T06:49:22.811Z,3.00
2024-03-27T06:51:51.083Z,3.00
2024-03-27T06:54:19.108Z,3.00
2024-03-27T06:56:47.335Z,3.00
2024-03-27T06:59:15.271Z,3.00
2024-03-27T07:01:43.318Z,4.00
2024-03-27T07:04:11.544Z,4.00
2024-03-27T07:06:39.481Z,2.67
2024-03-27T07:09:07.419Z,4.00
2024-03-27T07:11:35.411Z,5.00
2024-03-27T07:14:03.343Z,4.00
2024-03-27T07:16:31.291Z,4.00
2024-03-27T07:18:59.496Z,3.75
2024-03-27T07:21:27.499Z,3.00
2024-03-27T07:23:55.508Z,4.00
2024-03-27T07:26:25.422Z,3.33
2024-03-27T07:28:54.887Z,3.00
2024-03-27T07:31:22.761Z,4.00
2024-03-27T07:33:50.761Z,3.67
2024-03-27T07:36:18.700Z,4.33
2024-03-27T07:38:46.596Z,4.00
2024-03-27T07:41:14.605Z,3.00
2024-03-27T07:43:42.516Z,4.00
2024-03-27T07:46:12.362Z,4.00
2024-03-27T07:48:40.425Z,4.00
2024-03-27T07:51:08.405Z,4.00
2024-03-27T07:53:36.250Z,3.00
2024-03-27T07:56:04.431Z,3.00
2024-03-27T07:58:32.361Z,3.00
2024-03-27T08:01:00.356Z,2.67
2024-03-27T08:03:29.292Z,3.00
2024-03-27T08:05:58.335Z,3.33
2024-03-27T08:08:26.233Z,3.00
2024-03-27T08:11:00.077Z,3.00
2024-03-27T08:13:28.094Z,3.00
2024-03-27T08:15:56.124Z,3.00
2024-03-27T08:18:24.114Z,3.00
2024-03-27T08:20:53.088Z,3.00
2024-03-27T08:23:21.511Z,2.67
2024-03-27T08:25:49.492Z,3.33
2024-03-27T08:28:17.528Z,3.00
2024-03-27T08:30:45.423Z,3.00
2024-03-27T08:33:13.385Z,3.00
2024-03-27T08:35:41.407Z,4.00
2024-03-27T08:38:14.259Z,2.33
2024-03-27T08:40:42.932Z,3.33
2024-03-27T08:43:10.965Z,3.00
2024-03-27T08:45:38.849Z,3.00
2024-03-27T08:48:06.998Z,3.00
2024-03-27T08:50:34.883Z,3.00
2024-03-27T08:53:03.007Z,3.00
2024-03-27T08:55:31.618Z,3.00
2024-03-27T08:57:59.506Z,4.00
2024-03-27T09:00:27.441Z,3.00
2024-03-27T09:02:55.411Z,3.00
2024-03-27T09:05:23.502Z,3.00
2024-03-27T09:07:51.529Z,3.00
2024-03-27T09:10:19.550Z,2.50
2024-03-27T09:12:47.647Z,3.00
2024-03-27T09:15:15.534Z,3.67
2024-03-27T09:17:43.389Z,3.00
2024-03-27T09:20:11.707Z,3.00
2024-03-27T09:22:40.161Z,3.00
2024-03-27T09:25:09.496Z,4.00
2024-03-27T09:27:37.526Z,3.00
2024-03-27T09:30:07.120Z,4.00
2024-03-27T09:32:35.242Z,3.00
2024-03-27T09:35:03.284Z,3.00
2024-03-27T09:37:31.187Z,4.00
2024-03-27T09:39:59.122Z,4.00
2024-03-27T09:42:27.362Z,3.00
2024-03-27T09:44:55.398Z,4.00
2024-03-27T09:47:24.106Z,3.00
2024-03-27T09:49:52.144Z,4.00
2024-03-27T09:52:20.328Z,4.00
2024-03-27T09:54:48.425Z,4.67
2024-03-27T09:57:18.007Z,5.00
2024-03-27T09:59:46.152Z,3.00
2024-03-27T10:02:14.116Z,2.00
2024-03-27T10:04:42.104Z,4.00
2024-03-27T10:07:10.705Z,4.00
2024-03-27T10:09:38.598Z,4.00
2024-03-27T10:12:06.634Z,3.00
2024-03-27T10:14:34.483Z,3.67
2024-03-27T10:17:02.448Z,4.00
2024-03-27T10:19:30.315Z,4.00
2024-03-27T10:21:58.389Z,3.33
2024-03-27T10:24:26.264Z,4.00
2024-03-27T10:26:54.282Z,4.00
2024-03-27T10:29:22.197Z,3.50
2024-03-27T10:31:50.112Z,4.00
2024-03-27T10:34:18.035Z,4.00
2024-03-27T10:36:45.874Z,4.00
2024-03-27T10:39:18.347Z,4.00
2024-03-27T10:41:46.392Z,3.33
2024-03-27T10:44:14.233Z,4.00
2024-03-27T10:46:42.744Z,4.33
2024-03-27T10:49:10.988Z,4.00
2024-03-27T10:51:38.884Z,4.00
2024-03-27T10:54:06.896Z,4.50
2024-03-27T10:56:34.959Z,4.33
2024-03-27T10:59:03.056Z,4.00
2024-03-27T11:01:31.182Z,4.00
2024-03-27T11:03:59.735Z,4.00
2024-03-27T11:06:27.726Z,4.00
2024-03-27T11:08:57.948Z,2.67
2024-03-27T11:11:25.987Z,3.00
2024-03-27T11:13:54.031Z,8.00
2024-03-27T11:16:22.636Z,6.25
2024-03-27T11:18:53.501Z,7.00
2024-03-27T11:21:21.352Z,6.00
2024-03-27T11:23:53.218Z,6.00
2024-03-27T11:26:33.452Z,5.67
2024-03-27T11:29:01.462Z,4.67
2024-03-27T11:31:36.528Z,5.00
2024-03-27T11:34:04.532Z,5.00
2024-03-27T11:36:32.443Z,6.00
2024-03-27T11:39:01.978Z,5.33
2024-03-27T11:41:31.242Z,6.00
2024-03-27T11:43:59.557Z,5.00
2024-03-27T11:46:28.045Z,5.00
2024-03-27T11:48:56.331Z,5.00
2024-03-27T11:51:24.211Z,5.00
2024-03-27T11:53:52.244Z,4.50
2024-03-27T11:56:20.233Z,5.00
2024-03-27T11:58:48.237Z,5.00
2024-03-27T12:01:16.384Z,5.00
2024-03-27T12:03:44.277Z,5.00
2024-03-27T12:06:12.337Z,5.33
2024-03-27T12:08:42.054Z,5.00
2024-03-27T12:11:10.055Z,5.00
2024-03-27T12:13:38.494Z,5.00
2024-03-27T12:16:13.363Z,4.67
2024-03-27T12:18:41.777Z,4.00
2024-03-27T12:21:14.070Z,3.00
2024-03-27T12:23:42.859Z,4.00
2024-03-27T12:26:18.174Z,5.00
2024-03-27T12:28:48.913Z,4.00
2024-03-27T12:31:24.174Z,4.00
2024-03-27T12:33:52.198Z,4.00
2024-03-27T12:36:20.242Z,4.00
2024-03-27T12:38:48.951Z,3.50
2024-03-27T12:41:17.008Z,3.25
2024-03-27T12:43:44.999Z,4.00
2024-03-27T12:46:12.919Z,4.00
2024-03-27T12:48:43.516Z,4.00
2024-03-27T12:51:12.386Z,4.00
2024-03-27T12:53:40.464Z,5.00
2024-03-27T12:56:08.415Z,5.00
2024-03-27T12:58:36.441Z,4.00
2024-03-27T13:01:06.219Z,4.00
2024-03-27T13:03:35.430Z,4.00
2024-03-27T13:06:04.369Z,3.00
2024-03-27T13:08:32.364Z,4.50
2024-03-27T13:11:00.287Z,5.67
2024-03-27T13:13:30.940Z,5.00
2024-03-27T13:15:58.997Z,4.00
2024-03-27T13:18:27.779Z,5.00
2024-03-27T13:20:55.843Z,4.33
2024-03-27T13:23:23.883Z,5.00
2024-03-27T13:25:51.881Z,5.00
2024-03-27T13:28:20.032Z,6.00
2024-03-27T13:30:48.067Z,6.00
2024-03-27T13:33:16.097Z,6.00
2024-03-27T13:35:44.048Z,6.00
2024-03-27T13:38:11.949Z,6.00
2024-03-27T13:40:39.863Z,7.00
2024-03-27T13:43:07.802Z,7.00
2024-03-27T13:45:35.703Z,7.00
2024-03-27T13:48:03.997Z,7.50
2024-03-27T13:50:31.969Z,7.00
2024-03-27T13:53:00.178Z,7.67
2024-03-27T13:55:28.158Z,8.00
2024-03-27T13:57:56.242Z,8.00
2024-03-27T14:00:24.272Z,9.00
2024-03-27T14:02:52.295Z,9.00
2024-03-27T14:05:20.209Z,8.67
2024-03-27T14:07:48.212Z,8.00
2024-03-27T14:10:16.941Z,9.00
2024-03-27T14:12:44.944Z,8.33
2024-03-27T14:15:13.041Z,9.67
2024-03-27T14:17:41.457Z,9.00
2024-03-27T14:20:09.700Z,11.33
2024-03-27T14:22:37.576Z,10.50
2024-03-27T14:25:05.979Z,8.00
2024-03-27T14:27:33.886Z,9.33
2024-03-27T14:30:01.801Z,10.00
2024-03-27T14:32:29.706Z,10.33
2024-03-27T14:34:57.611Z,10.33
2024-03-27T14:37:25.638Z,9.33
2024-03-27T14:39:53.589Z,10.33
2024-03-27T14:42:21.632Z,11.00
2024-03-27T14:44:49.765Z,10.67
2024-03-27T14:47:17.802Z,10.00
2024-03-27T14:49:45.771Z,9.33
2024-03-27T14:52:13.805Z,9.00
2024-03-27T14:54:42.248Z,10.33
2024-03-27T14:57:11.280Z,10.00
2024-03-27T14:59:40.211Z,9.00
2024-03-27T15:02:08.310Z,10.00
2024-03-27T15:04:36.255Z,10.33
2024-03-27T15:07:04.381Z,10.33
2024-03-27T15:09:40.971Z,11.33
2024-03-27T15:12:13.605Z,10.33
2024-03-27T15:14:41.595Z,10.33
2024-03-27T15:17:09.646Z,10.50
2024-03-27T15:19:37.636Z,9.00
2024-03-27T15:22:05.683Z,10.67
2024-03-27T15:24:33.766Z,12.00
2024-03-27T15:27:01.894Z,9.00
2024-03-27T15:29:30.019Z,9.67
2024-03-27T15:31:57.913Z,10.00
2024-03-27T15:34:25.753Z,10.33
2024-03-27T15:36:54.668Z,9.67
2024-03-27T15:39:23.257Z,9.00
2024-03-27T15:41:51.282Z,10.67
2024-03-27T15:44:20.166Z,9.00
2024-03-27T15:46:48.172Z,9.00
2024-03-27T15:49:16.086Z,10.33
2024-03-27T15:51:44.355Z,8.00
2024-03-27T15:54:12.223Z,9.00
2024-03-27T15:56:40.215Z,8.00
2024-03-27T15:59:08.132Z,9.00
2024-03-27T16:01:36.072Z,9.67
2024-03-27T16:04:14.204Z,9.00
2024-03-27T16:06:50.275Z,8.00
2024-03-27T16:09:18.560Z,8.00
2024-03-27T16:11:47.713Z,9.00
2024-03-27T16:14:15.727Z,8.50
2024-03-27T16:16:43.721Z,6.50
2024-03-27T16:19:11.983Z,8.00
2024-03-27T16:21:39.957Z,8.33
2024-03-27T16:24:08.009Z,8.67
2024-03-27T16:26:35.992Z,9.00
2024-03-27T16:29:03.881Z,9.00
2024-03-27T16:31:32.179Z,7.50
2024-03-27T16:34:01.500Z,8.00
2024-03-27T16:36:30.502Z,8.33
2024-03-27T16:38:58.673Z,8.00
2024-03-27T16:41:26.699Z,8.00
2024-03-27T16:43:54.852Z,7.00
2024-03-27T16:46:22.807Z,8.00
2024-03-27T16:48:50.685Z,7.00
2024-03-27T16:51:19.026Z,7.67
2024-03-27T16:53:46.984Z,8.00
2024-03-27T16:56:14.906Z,9.00
2024-03-27T16:58:42.908Z,7.00
2024-03-27T17:01:10.904Z,8.00
2024-03-27T17:03:39.072Z,8.67
2024-03-27T17:06:07.517Z,8.00
2024-03-27T17:08:35.802Z,8.00
2024-03-27T17:11:03.940Z,8.00
2024-03-27T17:13:31.967Z,7.00
2024-03-27T17:15:59.930Z,8.00
2024-03-27T17:18:27.908Z,7.00
2024-03-27T17:20:55.881Z,8.00
2024-03-27T17:23:23.788Z,8.00
2024-03-27T17:25:51.720Z,6.00
2024-03-27T17:28:19.928Z,7.00
2024-03-27T17:30:48.004Z,7.00
2024-03-27T17:33:15.981Z,7.50
2024-03-27T17:35:53.003Z,6.00
2024-03-27T17:38:21.116Z,7.00
2024-03-27T17:40:49.122Z,7.00
2024-03-27T17:43:16.996Z,7.00
2024-03-27T17:45:44.899Z,7.00
2024-03-27T17:48:12.947Z,7.67
2024-03-27T17:50:41.163Z,7.33
2024-03-27T17:53:09.194Z,7.33
2024-03-27T17:55:37.244Z,8.00
2024-03-27T17:58:05.220Z,7.00
2024-03-27T18:00:33.236Z,7.00
2024-03-27T18:03:01.797Z,8.00
2024-03-27T18:05:30.068Z,6.00
2024-03-27T18:07:58.011Z,7.50
2024-03-27T18:10:26.641Z,5.00
2024-03-27T18:12:54.820Z,7.00
2024-03-27T18:15:22.812Z,5.33
2024-03-27T18:17:50.784Z,6.00
2024-03-27T18:20:18.810Z,6.00
2024-03-27T18:22:46.970Z,6.50
2024-03-27T18:25:15.104Z,7.33
2024-03-27T18:27:43.026Z,7.00
2024-03-27T18:30:11.491Z,6.00
2024-03-27T18:32:39.395Z,6.00
2024-03-27T18:35:07.714Z,5.00
2024-03-27T18:37:35.636Z,7.00
2024-03-27T18:40:04.318Z,7.00
2024-03-27T18:42:32.487Z,7.00
2024-03-27T18:45:00.485Z,6.00
2024-03-27T18:47:28.487Z,5.00
2024-03-27T18:49:56.460Z,6.00
2024-03-27T18:52:24.411Z,7.00
2024-03-27T18:54:54.224Z,7.00
2024-03-27T18:57:22.118Z,6.00
2024-03-27T18:59:50.155Z,6.00
2024-03-27T19:02:18.147Z,7.33
2024-03-27T19:04:46.031Z,6.00
2024-03-27T19:07:13.981Z,5.67
2024-03-27T19:09:41.884Z,6.00
2024-03-27T19:12:10.008Z,5.00
2024-03-27T19:14:38.181Z,6.00
2024-03-27T19:17:06.165Z,7.00
2024-03-27T19:19:34.042Z,6.67
2024-03-27T19:22:02.157Z,6.50
2024-03-27T19:24:30.226Z,6.00
2024-03-27T19:26:58.202Z,6.00
2024-03-27T19:29:26.068Z,7.00
2024-03-27T19:31:54.040Z,7.00
2024-03-27T19:34:22.010Z,5.33
2024-03-27T19:36:51.142Z,5.00
2024-03-27T19:39:19.109Z,5.00
2024-03-27T19:41:48.550Z,6.00
2024-03-27T19:44:16.522Z,5.00
2024-03-27T19:46:44.557Z,6.00
2024-03-27T19:49:12.623Z,5.33
2024-03-27T19:51:40.578Z,6.00
2024-03-27T19:54:08.597Z,5.67
2024-03-27T19:56:36.468Z,5.00
2024-03-27T19:59:04.659Z,5.00
2024-03-27T20:01:33.297Z,6.00
2024-03-27T20:04:01.493Z,3.75
2024-03-27T20:06:29.443Z,5.00
2024-03-27T20:08:57.429Z,5.00
2024-03-27T20:11:25.424Z,5.00
2024-03-27T20:13:53.270Z,6.00
2024-03-27T20:16:21.165Z,6.00
2024-03-27T20:18:49.092Z,4.25
2024-03-27T20:21:18.677Z,5.00
2024-03-27T20:23:46.649Z,5.00
2024-03-27T20:26:14.610Z,5.00
2024-03-27T20:28:42.773Z,3.00
2024-03-27T20:31:10.818Z,5.33
2024-03-27T20:33:38.781Z,6.00
2024-03-27T20:36:06.923Z,5.00
2024-03-27T20:38:34.780Z,6.00
2024-03-27T20:41:03.720Z,6.00
2024-03-27T20:43:32.005Z,5.00
2024-03-27T20:46:00.060Z,5.33
2024-03-27T20:48:28.360Z,5.00
2024-03-27T20:50:56.372Z,5.00
2024-03-27T20:53:24.257Z,5.00
2024-03-27T20:55:52.304Z,6.00
2024-03-27T20:58:20.376Z,5.00
2024-03-27T21:00:50.559Z,5.00
2024-03-27T21:03:18.520Z,5.00
2024-03-27T21:05:46.577Z,4.00
2024-03-27T21:08:14.469Z,5.00
2024-03-27T21:10:49.136Z,4.33
2024-03-27T21:13:17.024Z,4.50
2024-03-27T21:15:45.140Z,5.00
2024-03-27T21:18:13.112Z,1.00
2024-03-27T21:20:41.210Z,5.00
2024-03-27T21:23:09.237Z,4.67
2024-03-27T21:25:37.119Z,4.00
2024-03-27T21:28:05.518Z,5.00
2024-03-27T21:30:33.394Z,6.00
2024-03-27T21:33:01.301Z,4.00
2024-03-27T21:35:29.919Z,4.00
2024-03-27T21:37:57.945Z,5.00
2024-03-27T21:40:25.888Z,5.00
2024-03-27T21:42:55.709Z,5.00
2024-03-27T21:45:24.865Z,5.00
2024-03-27T21:47:52.760Z,5.00
2024-03-27T21:50:20.793Z,5.00
2024-03-27T21:52:49.826Z,5.00
2024-03-27T21:55:17.951Z,4.00
2024-03-27T21:57:46.232Z,4.00
2024-03-27T22:00:14.431Z,5.00
2024-03-27T22:02:43.969Z,4.00
2024-03-27T22:05:11.887Z,4.00
2024-03-27T22:07:39.933Z,5.00
2024-03-27T22:10:08.165Z,5.00
2024-03-27T22:12:36.060Z,4.00
2024-03-27T22:15:04.363Z,4.00
2024-03-27T22:17:34.539Z,5.00
2024-03-27T22:20:03.469Z,3.00
2024-03-27T22:22:31.354Z,4.00
2024-03-27T22:24:59.232Z,5.00
2024-03-27T22:27:27.247Z,3.67
2024-03-27T22:29:55.332Z,4.00
2024-03-27T22:32:23.304Z,4.50
2024-03-27T22:34:54.490Z,4.00
2024-03-27T22:37:22.414Z,4.00
2024-03-27T22:39:53.081Z,3.67
2024-03-27T22:42:20.971Z,4.00
2024-03-27T22:44:49.669Z,4.00
2024-03-27T22:47:18.098Z,5.00
2024-03-27T22:49:54.859Z,3.25
2024-03-27T22:52:22.845Z,4.00
2024-03-27T22:54:50.927Z,4.00
2024-03-27T22:57:18.868Z,4.00
2024-03-27T22:59:46.718Z,4.25
2024-03-27T23:02:14.690Z,4.00
2024-03-27T23:04:42.623Z,3.00
2024-03-27T23:07:10.548Z,5.00
2024-03-27T23:09:38.489Z,4.00
2024-03-27T23:12:06.901Z,4.33
2024-03-27T23:14:34.926Z,4.00
2024-03-27T23:17:02.823Z,4.00
2024-03-27T23:19:30.806Z,4.00
2024-03-27T23:21:58.711Z,4.00
2024-03-27T23:24:26.636Z,5.00
2024-03-27T23:26:54.529Z,1.00
2024-03-27T23:29:22.514Z,4.00
2024-03-27T23:31:50.388Z,4.00
2024-03-27T23:34:18.326Z,3.75
2024-03-27T23:36:46.285Z,4.00
2024-03-27T23:39:14.195Z,4.00
2024-03-27T23:41:42.689Z,3.00
2024-03-27T23:44:10.517Z,3.00
2024-03-27T23:46:38.455Z,4.00
2024-03-27T23:49:06.333Z,4.00
2024-03-27T23:51:34.332Z,4.00
2024-03-27T23:54:02.407Z,4.00
2024-03-27T23:56:30.285Z,4.00
2024-03-27T23:58:58.144Z,4.00
